Time;durP1;ratioP1;P1;durP2;ratioP2;P2;SDS_P1;SDS_P2;PMS_P1;PMS_P2;Temp;Humidity;BMP_temperature;BMP_pressure;BME280_temperature;BME280_humidity;BME280_pressure;Samples;Min_cycle;Max_cycle;Signal;HPM_P1;HPM_P2
2021/05/19 00:01:37;;;;;;;1.20;0.90;;;19.30;38.40;;;;;;8295461;28;20037;-48
2021/05/19 00:05:39;;;;;;;1.38;0.75;;;19.30;38.40;;;;;;8296998;28;20034;-49
2021/05/19 00:09:39;;;;;;;1.98;0.82;;;19.30;38.50;;;;;;8295449;28;20482;-46
2021/05/19 00:13:40;;;;;;;1.23;0.67;;;19.30;38.40;;;;;;8323230;28;20042;-49
2021/05/19 00:17:44;;;;;;;0.80;0.70;;;19.30;38.50;;;;;;8321644;28;20030;-48
2021/05/19 00:21:46;;;;;;;2.17;0.82;;;19.30;38.50;;;;;;8315078;28;20521;-48
2021/05/19 00:25:47;;;;;;;1.52;0.70;;;19.30;38.50;;;;;;8327422;28;20111;-48
2021/05/19 00:29:49;;;;;;;0.70;0.60;;;19.30;38.50;;;;;;8329095;28;20041;-50
2021/05/19 00:33:50;;;;;;;0.63;0.60;;;19.30;38.60;;;;;;8332966;28;20307;-51
2021/05/19 00:37:51;;;;;;;1.95;0.70;;;19.30;38.50;;;;;;8326956;28;20059;-49
2021/05/19 00:41:51;;;;;;;1.90;0.70;;;19.30;38.60;;;;;;8328573;28;20037;-48
2021/05/19 00:45:52;;;;;;;0.73;0.60;;;19.30;38.60;;;;;;8328331;28;20033;-49
2021/05/19 00:49:52;;;;;;;0.90;0.80;;;19.30;38.60;;;;;;8330835;28;20041;-52
2021/05/19 00:53:55;;;;;;;0.77;0.67;;;19.30;38.60;;;;;;8328010;28;20037;-51
2021/05/19 00:57:56;;;;;;;2.28;0.60;;;19.20;38.50;;;;;;8328488;28;20124;-49
2021/05/19 01:01:57;;;;;;;1.57;0.80;;;19.20;38.60;;;;;;8326269;28;20041;-46
2021/05/19 01:06:04;;;;;;;0.40;0.40;;;19.20;38.50;;;;;;8327820;28;20030;-48
2021/05/19 01:10:05;;;;;;;1.00;0.80;;;19.20;38.50;;;;;;8332119;28;20480;-49
2021/05/19 01:14:05;;;;;;;1.05;0.75;;;19.20;38.60;;;;;;8325898;28;20033;-49
2021/05/19 01:18:07;;;;;;;0.80;0.57;;;19.20;38.60;;;;;;8327362;28;20038;-47
2021/05/19 01:22:11;;;;;;;1.08;0.68;;;19.20;38.60;;;;;;8305001;28;20486;-48
2021/05/19 01:26:13;;;;;;;0.65;0.60;;;19.20;38.60;;;;;;8297198;28;20391;-47
2021/05/19 01:30:14;;;;;;;1.38;0.80;;;19.20;38.60;;;;;;8308841;28;20045;-46
2021/05/19 01:34:15;;;;;;;1.05;0.80;;;19.20;38.60;;;;;;8326738;28;20107;-46
2021/05/19 01:38:16;;;;;;;1.30;0.50;;;19.20;38.60;;;;;;8324999;28;20029;-47
2021/05/19 01:42:16;;;;;;;0.90;0.50;;;19.20;38.60;;;;;;8326686;28;20505;-46
2021/05/19 01:46:17;;;;;;;0.80;0.70;;;19.10;38.60;;;;;;8331003;28;20076;-46
2021/05/19 01:50:20;;;;;;;2.08;0.70;;;19.20;38.60;;;;;;8324708;28;20069;-46
2021/05/19 01:54:22;;;;;;;1.33;0.65;;;19.20;38.70;;;;;;8326600;28;20044;-46
2021/05/19 01:58:23;;;;;;;0.85;0.50;;;19.20;38.70;;;;;;8326139;28;20034;-47
2021/05/19 02:02:24;;;;;;;1.07;0.80;;;19.20;38.70;;;;;;8328761;28;20059;-47
2021/05/19 02:06:24;;;;;;;0.95;0.68;;;19.10;38.70;;;;;;8326006;28;20478;-46
2021/05/19 02:10:25;;;;;;;0.93;0.60;;;19.20;38.80;;;;;;8325747;28;20068;-47
2021/05/19 02:14:26;;;;;;;0.50;0.50;;;19.20;38.80;;;;;;8323985;28;20121;-47
2021/05/19 02:18:26;;;;;;;0.70;0.60;;;19.10;38.70;;;;;;8330343;28;20026;-48
2021/05/19 02:22:27;;;;;;;0.70;0.60;;;19.10;38.80;;;;;;8325265;28;20037;-50
2021/05/19 02:26:27;;;;;;;1.27;0.90;;;19.10;38.80;;;;;;8323783;28;20425;-47
2021/05/19 02:30:30;;;;;;;0.80;0.63;;;19.10;38.80;;;;;;8325209;28;20041;-48
2021/05/19 02:34:31;;;;;;;1.02;0.60;;;19.10;38.80;;;;;;8323073;28;20065;-46
2021/05/19 02:38:34;;;;;;;1.27;0.60;;;19.10;38.80;;;;;;8329573;28;20025;-48
2021/05/19 02:42:35;;;;;;;0.88;0.60;;;19.10;38.90;;;;;;8324938;28;20237;-49
2021/05/19 02:46:36;;;;;;;0.50;0.50;;;19.10;38.90;;;;;;8323139;28;20046;-48
2021/05/19 02:50:37;;;;;;;1.02;0.80;;;19.00;38.80;;;;;;8324808;28;20096;-48
2021/05/19 02:54:37;;;;;;;0.77;0.60;;;19.00;38.90;;;;;;8329168;28;20037;-47
2021/05/19 02:58:38;;;;;;;0.67;0.60;;;19.00;38.90;;;;;;8323230;28;20087;-47
2021/05/19 03:02:39;;;;;;;0.60;0.50;;;19.00;38.90;;;;;;8315394;28;20124;-47
2021/05/19 03:06:40;;;;;;;0.52;0.50;;;19.00;38.90;;;;;;8309873;28;20092;-46
2021/05/19 03:10:41;;;;;;;3.33;0.73;;;19.00;38.90;;;;;;8321218;28;20049;-47
2021/05/19 03:14:41;;;;;;;0.93;0.68;;;19.00;39.00;;;;;;8306298;28;20034;-47
2021/05/19 03:18:42;;;;;;;1.53;0.60;;;19.00;39.00;;;;;;8324593;28;20056;-47
2021/05/19 03:22:43;;;;;;;0.73;0.63;;;19.00;39.00;;;;;;8322650;28;20045;-47
2021/05/19 03:26:43;;;;;;;0.67;0.67;;;19.10;39.00;;;;;;8324426;28;20269;-47
2021/05/19 03:30:45;;;;;;;0.80;0.60;;;19.00;39.00;;;;;;8328949;28;20172;-47
2021/05/19 03:34:46;;;;;;;0.75;0.60;;;19.00;39.00;;;;;;8323236;28;20383;-47
2021/05/19 03:38:46;;;;;;;1.60;1.10;;;19.00;39.00;;;;;;8324718;28;20041;-47
2021/05/19 03:42:47;;;;;;;1.63;0.97;;;19.00;39.00;;;;;;8324200;28;20140;-47
2021/05/19 03:46:49;;;;;;;0.60;0.60;;;19.00;39.00;;;;;;8332534;28;20047;-47
2021/05/19 03:50:49;;;;;;;;;;;19.00;39.00;;;;;;8330339;28;20637;-47
2021/05/19 03:54:50;;;;;;;0.60;0.50;;;19.00;39.00;;;;;;8329929;28;19913;-47
2021/05/19 03:58:51;;;;;;;0.55;0.50;;;19.00;39.00;;;;;;8328349;28;20049;-47
2021/05/19 04:02:51;;;;;;;1.07;0.60;;;19.00;39.00;;;;;;8330157;28;20084;-48
2021/05/19 04:06:52;;;;;;;1.07;0.93;;;19.00;39.00;;;;;;8334113;28;20038;-48
2021/05/19 04:10:53;;;;;;;0.80;0.50;;;19.00;39.00;;;;;;8327796;28;20038;-47
2021/05/19 04:14:53;;;;;;;1.73;0.80;;;19.00;39.00;;;;;;8329566;28;20478;-47
2021/05/19 04:18:54;;;;;;;1.10;0.60;;;19.00;39.00;;;;;;8309303;28;20038;-48
2021/05/19 04:22:54;;;;;;;1.43;0.80;;;19.00;39.00;;;;;;8299245;28;20044;-48
2021/05/19 04:26:55;;;;;;;0.70;0.70;;;19.00;39.00;;;;;;8296180;28;20047;-48
2021/05/19 04:30:55;;;;;;;1.03;0.80;;;19.00;39.00;;;;;;8316061;28;20042;-47
2021/05/19 04:34:57;;;;;;;1.17;0.60;;;19.00;39.00;;;;;;8327109;28;20108;-48
2021/05/19 04:38:57;;;;;;;0.60;0.50;;;19.00;39.10;;;;;;8329922;28;20042;-48
2021/05/19 04:42:58;;;;;;;0.80;0.70;;;19.00;39.00;;;;;;8331867;28;20490;-47
2021/05/19 04:46:58;;;;;;;1.60;0.97;;;19.00;39.00;;;;;;8326689;28;20481;-47
2021/05/19 04:50:59;;;;;;;0.83;0.60;;;19.00;39.00;;;;;;8328238;28;20057;-46
2021/05/19 04:55:01;;;;;;;1.17;0.67;;;19.00;39.10;;;;;;8327570;28;20470;-46
2021/05/19 04:59:03;;;;;;;1.17;0.60;;;19.00;39.10;;;;;;8330663;28;20040;-47
2021/05/19 05:03:05;;;;;;;2.15;0.70;;;19.00;39.10;;;;;;8327916;28;20447;-47
2021/05/19 05:07:05;;;;;;;0.60;0.60;;;19.00;39.60;;;;;;8327741;28;20029;-48
2021/05/19 05:11:06;;;;;;;0.60;0.50;;;19.00;39.00;;;;;;8325973;28;21040;-46
2021/05/19 05:15:14;;;;;;;1.03;0.70;;;19.00;39.00;;;;;;8332165;28;20033;-47
2021/05/19 05:19:14;;;;;;;0.95;0.65;;;19.00;39.00;;;;;;8305016;28;20038;-46
2021/05/19 05:23:15;;;;;;;1.03;0.70;;;19.00;39.00;;;;;;8299957;28;20561;-47
2021/05/19 05:27:15;;;;;;;5.00;0.90;;;19.00;39.00;;;;;;8326963;28;20044;-47
2021/05/19 05:31:16;;;;;;;0.83;0.70;;;19.00;39.00;;;;;;8327045;28;20049;-47
2021/05/19 05:35:17;;;;;;;1.17;0.70;;;19.00;38.90;;;;;;8329581;28;20033;-47
2021/05/19 05:39:18;;;;;;;0.60;0.50;;;19.10;38.90;;;;;;8326998;28;20052;-46
2021/05/19 05:43:19;;;;;;;1.00;0.70;;;19.10;38.80;;;;;;8326751;28;20120;-48
2021/05/19 05:47:20;;;;;;;0.97;0.60;;;19.10;38.80;;;;;;8293239;28;20040;-48
2021/05/19 05:51:20;;;;;;;0.97;0.60;;;19.10;38.80;;;;;;8313264;28;20033;-47
2021/05/19 05:55:21;;;;;;;1.00;0.60;;;19.10;38.80;;;;;;8326159;28;20041;-47
2021/05/19 05:59:21;;;;;;;0.63;0.63;;;19.10;38.90;;;;;;8324267;28;20123;-46
2021/05/19 06:03:22;;;;;;;1.23;0.90;;;19.10;38.90;;;;;;8326194;28;20033;-47
2021/05/19 06:07:22;;;;;;;1.00;0.80;;;19.10;39.00;;;;;;8303050;28;20065;-48
2021/05/19 06:11:23;;;;;;;0.83;0.73;;;19.10;39.00;;;;;;8326760;28;20042;-47
2021/05/19 06:15:24;;;;;;;1.03;0.73;;;19.10;39.00;;;;;;8325897;28;20025;-46
2021/05/19 06:19:25;;;;;;;2.00;0.55;;;19.00;39.00;;;;;;8301784;28;20065;-48
2021/05/19 06:23:26;;;;;;;0.85;0.68;;;19.00;39.50;;;;;;8291121;28;20048;-49
2021/05/19 06:27:26;;;;;;;0.97;0.80;;;19.00;39.00;;;;;;8297016;28;20034;-49
2021/05/19 06:31:27;;;;;;;2.07;0.50;;;19.00;39.00;;;;;;8317388;28;20529;-50
2021/05/19 06:35:28;;;;;;;1.53;0.57;;;19.10;39.00;;;;;;8323397;28;20030;-47
2021/05/19 06:39:28;;;;;;;1.43;0.63;;;19.10;38.90;;;;;;8308823;28;20388;-47
2021/05/19 06:43:29;;;;;;;0.80;0.70;;;19.10;38.80;;;;;;8295307;28;20491;-47
2021/05/19 06:47:29;;;;;;;0.87;0.77;;;19.20;38.90;;;;;;8292264;28;20038;-52
2021/05/19 06:51:30;;;;;;;1.30;0.90;;;19.20;38.80;;;;;;8292374;28;20042;-47
2021/05/19 06:55:31;;;;;;;1.73;0.88;;;19.20;38.80;;;;;;8290491;28;20053;-45
2021/05/19 06:59:31;;;;;;;1.20;0.70;;;19.20;38.70;;;;;;8292105;28;20033;-47
2021/05/19 07:03:32;;;;;;;1.13;0.80;;;19.30;38.60;;;;;;8313414;28;20065;-47
2021/05/19 07:07:33;;;;;;;1.75;1.00;;;19.30;38.50;;;;;;8322992;28;20501;-47
2021/05/19 07:11:34;;;;;;;0.80;0.70;;;19.40;38.50;;;;;;8324442;28;20033;-48
2021/05/19 07:15:38;;;;;;;4.03;0.73;;;19.40;38.50;;;;;;8324405;28;20061;-46
2021/05/19 07:19:38;;;;;;;1.33;0.77;;;19.40;38.60;;;;;;8328013;28;20057;-46
2021/05/19 07:23:39;;;;;;;1.47;0.70;;;19.40;38.60;;;;;;8298224;28;20128;-46
2021/05/19 07:27:40;;;;;;;0.90;0.87;;;19.40;38.60;;;;;;8297963;28;20042;-47
2021/05/19 07:31:41;;;;;;;0.80;0.70;;;19.30;38.60;;;;;;8322446;28;20055;-47
2021/05/19 07:35:43;;;;;;;1.27;1.08;;;19.30;38.60;;;;;;8335128;28;20037;-46
2021/05/19 07:39:44;;;;;;;0.93;0.70;;;19.30;38.70;;;;;;8332077;28;20561;-46
2021/05/19 07:43:44;;;;;;;1.73;0.70;;;19.30;38.70;;;;;;8329051;28;20044;-46
2021/05/19 07:47:45;;;;;;;2.00;1.10;;;19.30;38.80;;;;;;8319880;28;20126;-47
2021/05/19 07:51:46;;;;;;;0.90;0.77;;;19.30;38.80;;;;;;8297455;28;22218;-47
2021/05/19 07:56:15;;;;;;;1.50;0.80;;;19.30;38.80;;;;;;8300127;28;20029;-47
2021/05/19 08:00:15;;;;;;;0.80;0.80;;;19.20;38.80;;;;;;8296651;28;20042;-46
2021/05/19 08:04:16;;;;;;;1.00;0.65;;;19.20;38.80;;;;;;8296933;28;20034;-46
2021/05/19 08:08:17;;;;;;;1.07;0.83;;;19.20;38.80;;;;;;8326505;28;20512;-46
2021/05/19 08:12:18;;;;;;;1.40;0.70;;;19.20;38.90;;;;;;8329493;28;20033;-47
2021/05/19 08:16:18;;;;;;;1.03;0.93;;;19.20;38.90;;;;;;8333514;28;20336;-48
2021/05/19 08:20:21;;;;;;;1.80;0.90;;;19.20;38.80;;;;;;8327681;28;20099;-48
2021/05/19 08:24:21;;;;;;;1.75;0.90;;;19.20;38.80;;;;;;8329092;28;20040;-47
2021/05/19 08:28:22;;;;;;;1.33;0.90;;;19.20;38.90;;;;;;8305490;28;20046;-47
2021/05/19 08:32:23;;;;;;;1.20;1.00;;;19.20;38.90;;;;;;8305180;28;20026;-47
2021/05/19 08:36:24;;;;;;;1.23;1.10;;;19.20;38.90;;;;;;8328984;28;20044;-48
2021/05/19 08:40:29;;;;;;;1.92;1.20;;;19.20;38.90;;;;;;8328800;28;20187;-48
2021/05/19 08:44:29;;;;;;;1.55;1.02;;;19.20;38.90;;;;;;8318909;28;20080;-48
2021/05/19 08:48:31;;;;;;;1.40;0.90;;;19.20;38.90;;;;;;8300106;28;20082;-47
2021/05/19 08:52:37;;;;;;;2.67;0.98;;;19.20;39.00;;;;;;8293451;28;20403;-48
2021/05/19 08:56:44;;;;;;;1.88;1.17;;;19.20;39.00;;;;;;8304797;28;20038;-48
2021/05/19 09:00:45;;;;;;;2.33;1.25;;;19.20;39.10;;;;;;8328107;28;20367;-47
2021/05/19 09:04:57;;;;;;;3.33;1.30;;;19.20;39.10;;;;;;8299380;28;20034;-48
2021/05/19 09:08:58;;;;;;;1.15;1.00;;;19.30;39.00;;;;;;8311731;28;20376;-47
2021/05/19 09:12:58;;;;;;;1.50;1.10;;;19.30;39.00;;;;;;8327517;28;20104;-47
2021/05/19 09:17:18;;;;;;;3.07;1.37;;;19.30;39.10;;;;;;8297158;28;20435;-49
2021/05/19 09:21:41;;;;;;;1.45;1.10;;;19.30;39.00;;;;;;8294376;28;20495;-47
2021/05/19 09:25:42;;;;;;;1.45;0.90;;;19.40;39.00;;;;;;8293038;28;20065;-48
2021/05/19 09:29:46;;;;;;;1.45;0.80;;;19.40;39.10;;;;;;8309004;28;20148;-47
2021/05/19 09:33:48;;;;;;;2.53;1.60;;;19.40;39.10;;;;;;8327401;28;20033;-46
2021/05/19 09:37:48;;;;;;;2.03;1.20;;;19.40;39.70;;;;;;8325357;28;20049;-48
2021/05/19 09:41:55;;;;;;;1.87;1.00;;;19.40;39.20;;;;;;8326384;28;20491;-48
2021/05/19 09:46:13;;;;;;;1.00;0.80;;;19.40;39.20;;;;;;8326827;28;20512;-46
2021/05/19 09:50:18;;;;;;;1.67;1.00;;;19.50;39.30;;;;;;8329138;28;20045;-47
2021/05/19 09:54:42;;;;;;;1.92;1.08;;;19.50;39.20;;;;;;8326617;28;20382;-46
2021/05/19 09:58:44;;;;;;;2.33;1.00;;;19.60;39.30;;;;;;8324606;28;20049;-47
2021/05/19 10:02:46;;;;;;;1.45;1.00;;;19.60;39.30;;;;;;8326264;28;20456;-46
2021/05/19 10:06:48;;;;;;;2.15;1.27;;;19.60;39.30;;;;;;8306940;28;20030;-48
2021/05/19 10:10:48;;;;;;;1.00;0.88;;;19.60;39.30;;;;;;8298404;28;20080;-47
2021/05/19 10:14:50;;;;;;;1.83;1.13;;;19.60;39.20;;;;;;8326077;28;20067;-47
2021/05/19 10:18:56;;;;;;;2.03;1.00;;;19.70;39.20;;;;;;8325470;28;20065;-47
2021/05/19 10:22:56;;;;;;;1.77;1.17;;;19.70;39.10;;;;;;8295539;28;20034;-47
2021/05/19 10:27:04;;;;;;;1.00;0.90;;;19.70;39.10;;;;;;8309337;28;20041;-51
2021/05/19 10:31:22;;;;;;;1.90;1.20;;;19.70;39.10;;;;;;8304070;28;20050;-48
2021/05/19 10:35:35;;;;;;;2.15;1.17;;;19.80;39.10;;;;;;8290954;28;20030;-47
2021/05/19 10:39:35;;;;;;;1.63;0.93;;;19.80;39.10;;;;;;8309975;28;20037;-46
2021/05/19 10:43:51;;;;;;;1.53;0.90;;;19.80;39.00;;;;;;8323341;28;20483;-47
2021/05/19 10:47:51;;;;;;;1.23;0.90;;;19.80;38.90;;;;;;8318226;28;20042;-47
2021/05/19 10:57:10;;;;;;;2.37;0.97;;;19.90;38.90;;;;;;8292096;28;20145;-46
2021/05/19 11:00:49;;;;;;;1.20;0.88;;;19.90;38.80;;;;;;8324873;28;20516;-47
2021/05/19 11:05:12;;;;;;;1.10;0.90;;;20.00;38.80;;;;;;8323117;28;20034;-47
2021/05/19 11:09:29;;;;;;;1.67;0.80;;;20.00;38.80;;;;;;8324687;28;20116;-46
2021/05/19 11:14:05;;;;;;;1.10;0.70;;;20.00;38.70;;;;;;8327303;28;20029;-47
2021/05/19 11:22:38;;;;;;;1.40;0.90;;;20.00;38.60;;;;;;8290184;28;20384;-48
2021/05/19 11:26:46;;;;;;;2.13;1.20;;;20.10;38.60;;;;;;8291738;28;20030;-46
2021/05/19 11:30:47;;;;;;;0.80;0.77;;;20.10;38.70;;;;;;8291107;28;20038;-48
2021/05/19 11:34:48;;;;;;;1.37;0.93;;;20.10;38.70;;;;;;8321312;28;20303;-47
2021/05/19 11:38:48;;;;;;;1.77;0.90;;;20.10;38.60;;;;;;8313834;28;20038;-47
2021/05/19 11:42:56;;;;;;;1.07;0.90;;;20.10;38.60;;;;;;8291791;28;20046;-46
2021/05/19 11:46:57;;;;;;;1.40;1.00;;;20.10;38.60;;;;;;8318284;28;20030;-47
2021/05/19 11:50:57;;;;;;;2.17;1.13;;;20.10;38.50;;;;;;8324277;28;20052;-49
2021/05/19 11:54:58;;;;;;;1.20;0.90;;;20.20;38.50;;;;;;8328625;28;20087;-47
2021/05/19 11:58:58;;;;;;;0.87;0.83;;;20.20;38.40;;;;;;8293883;28;20030;-48
2021/05/19 12:02:59;;;;;;;2.70;1.00;;;20.20;38.50;;;;;;8291702;28;20046;-47
2021/05/19 12:07:02;;;;;;;1.30;0.80;;;20.20;38.40;;;;;;8315988;28;20029;-47
2021/05/19 12:11:08;;;;;;;1.90;0.90;;;20.20;38.40;;;;;;8327626;28;20038;-48
2021/05/19 12:15:11;;;;;;;2.53;1.10;;;20.20;38.30;;;;;;8296868;28;20033;-47
2021/05/19 12:19:15;;;;;;;1.48;1.00;;;20.20;38.30;;;;;;8318793;28;20127;-47
2021/05/19 12:23:16;;;;;;;1.20;1.02;;;20.20;38.30;;;;;;8327521;28;20045;-48
2021/05/19 12:27:19;;;;;;;1.27;0.80;;;20.20;38.30;;;;;;8328813;28;20045;-49
2021/05/19 12:31:31;;;;;;;1.25;0.88;;;20.20;38.30;;;;;;8333293;28;20053;-47
2021/05/19 12:35:32;;;;;;;2.35;0.90;;;20.20;38.30;;;;;;8327365;28;20113;-48
2021/05/19 12:39:34;;;;;;;1.40;0.70;;;20.20;38.30;;;;;;8328702;28;20044;-47
2021/05/19 12:43:34;;;;;;;0.95;0.75;;;20.20;38.20;;;;;;8302292;28;20641;-48
2021/05/19 12:47:35;;;;;;;2.07;0.80;;;20.20;38.20;;;;;;8323724;28;20022;-47
2021/05/19 12:51:56;;;;;;;1.20;1.00;;;20.20;38.30;;;;;;8295647;28;20592;-49
2021/05/19 12:56:10;;;;;;;0.90;0.75;;;20.20;38.20;;;;;;8297343;28;20033;-50
2021/05/19 13:00:14;;;;;;;0.98;0.73;;;20.20;38.40;;;;;;8328228;28;20083;-48
2021/05/19 13:04:16;;;;;;;0.85;0.63;;;20.10;38.40;;;;;;8327805;28;20406;-47
2021/05/19 13:08:19;;;;;;;1.42;0.70;;;20.10;38.40;;;;;;8323785;28;20056;-47
2021/05/19 13:12:28;;;;;;;1.00;0.80;;;20.10;38.40;;;;;;8309748;28;20044;-52
2021/05/19 13:16:36;;;;;;;1.20;0.65;;;20.10;38.40;;;;;;8300817;28;20463;-50
2021/05/19 13:20:45;;;;;;;0.95;0.70;;;20.10;38.50;;;;;;8327527;28;20045;-48
2021/05/19 13:24:46;;;;;;;1.00;0.68;;;20.10;38.50;;;;;;8324102;28;20038;-48
2021/05/19 13:28:49;;;;;;;1.47;0.90;;;20.10;38.40;;;;;;8321478;28;20052;-48
2021/05/19 13:33:14;;;;;;;0.90;0.80;;;20.10;38.50;;;;;;8294251;28;20034;-47
2021/05/19 13:37:14;;;;;;;1.75;0.93;;;20.10;38.50;;;;;;8316902;28;20040;-49
2021/05/19 13:41:16;;;;;;;1.15;0.90;;;20.10;38.50;;;;;;8325239;28;20048;-48
2021/05/19 13:45:17;;;;;;;0.90;0.75;;;20.20;38.40;;;;;;8326628;28;20136;-47
2021/05/19 13:49:27;;;;;;;0.70;0.60;;;20.20;38.40;;;;;;8330719;28;20094;-47
2021/05/19 13:53:28;;;;;;;0.68;0.65;;;20.20;38.40;;;;;;8324377;28;20052;-46
2021/05/19 13:57:29;;;;;;;1.00;0.70;;;20.20;38.40;;;;;;8326179;28;20073;-47
2021/05/19 14:01:29;;;;;;;0.80;0.80;;;20.20;38.40;;;;;;8324418;28;20040;-49
2021/05/19 14:05:30;;;;;;;0.90;0.73;;;20.20;38.30;;;;;;8330371;28;20451;-47
2021/05/19 14:09:31;;;;;;;0.60;0.57;;;20.20;38.30;;;;;;8325736;28;20041;-48
2021/05/19 14:13:38;;;;;;;2.70;0.90;;;20.20;38.20;;;;;;8324251;28;20037;-48
2021/05/19 14:30:20;;;;;;;3.42;1.00;;;20.30;38.20;;;;;;8324451;28;20527;-47
2021/05/19 14:34:22;;;;;;;0.73;0.53;;;20.30;38.20;;;;;;8325408;28;20030;-49
2021/05/19 14:59:45;;;;;;;1.80;0.80;;;20.40;38.00;;;;;;8292067;28;20029;-47
2021/05/19 15:03:48;;;;;;;1.20;0.70;;;20.40;38.00;;;;;;8292151;28;20084;-48
2021/05/19 15:07:48;;;;;;;0.88;0.80;;;20.50;38.00;;;;;;8297317;28;20091;-49
2021/05/19 15:11:49;;;;;;;0.53;0.50;;;20.40;38.00;;;;;;8324530;28;20034;-49
2021/05/19 15:15:49;;;;;;;1.17;0.83;;;20.40;38.00;;;;;;8323891;28;20422;-49
2021/05/19 15:19:50;;;;;;;1.70;0.80;;;20.40;38.10;;;;;;8322559;28;20064;-50
2021/05/19 15:23:50;;;;;;;1.33;1.00;;;20.30;38.10;;;;;;8326705;28;20084;-49
2021/05/19 15:27:51;;;;;;;1.60;0.98;;;20.30;38.20;;;;;;8326666;28;20030;-53
2021/05/19 15:31:52;;;;;;;0.80;0.70;;;20.30;38.20;;;;;;8295173;28;20380;-54
2021/05/19 15:35:53;;;;;;;1.13;0.80;;;20.30;38.30;;;;;;8291441;28;20511;-49
2021/05/19 15:39:53;;;;;;;1.48;0.90;;;20.30;38.40;;;;;;8292460;28;20062;-50
2021/05/19 15:43:54;;;;;;;1.57;0.73;;;20.30;38.40;;;;;;8304048;28;20367;-51
2021/05/19 15:47:55;;;;;;;1.10;0.85;;;20.30;38.40;;;;;;8330919;28;20064;-53
2021/05/19 15:51:55;;;;;;;0.80;0.67;;;20.30;38.50;;;;;;8330273;28;20041;-48
2021/05/19 15:55:56;;;;;;;1.00;0.70;;;20.30;38.50;;;;;;8324666;28;20116;-50
2021/05/19 15:59:57;;;;;;;2.03;1.00;;;20.30;38.50;;;;;;8313849;28;20044;-49
2021/05/19 16:03:59;;;;;;;1.80;0.80;;;20.30;38.50;;;;;;8329852;28;20060;-49
2021/05/19 16:08:02;;;;;;;0.88;0.68;;;20.30;38.50;;;;;;8323749;28;20026;-48
2021/05/19 16:12:03;;;;;;;1.67;0.85;;;20.30;38.60;;;;;;8309766;28;20065;-49
2021/05/19 16:16:04;;;;;;;1.50;0.60;;;20.30;38.60;;;;;;8329378;28;20037;-50
2021/05/19 16:20:07;;;;;;;1.38;0.63;;;20.20;38.60;;;;;;8302482;28;20061;-49
2021/05/19 16:24:09;;;;;;;0.82;0.63;;;20.20;38.60;;;;;;8296402;28;20518;-48
2021/05/19 16:28:09;;;;;;;0.68;0.47;;;20.20;38.60;;;;;;8296688;28;20129;-50
2021/05/19 16:32:10;;;;;;;1.03;0.70;;;20.20;38.70;;;;;;8318907;28;20034;-51
2021/05/19 16:36:10;;;;;;;1.67;0.60;;;20.20;38.70;;;;;;8314508;28;20036;-50
2021/05/19 16:40:11;;;;;;;0.90;0.60;;;20.20;38.70;;;;;;8329250;28;20087;-50
2021/05/19 16:44:12;;;;;;;0.97;0.70;;;20.20;38.60;;;;;;8326952;28;20029;-48
2021/05/19 16:48:13;;;;;;;1.38;1.00;;;20.20;38.70;;;;;;8314314;28;20092;-49
2021/05/19 16:52:13;;;;;;;0.82;0.70;;;20.20;38.70;;;;;;8297699;28;20395;-51
2021/05/19 16:56:14;;;;;;;0.70;0.70;;;20.20;38.70;;;;;;8295152;28;20125;-49
2021/05/19 17:00:15;;;;;;;1.47;0.87;;;20.20;38.70;;;;;;8295055;28;20036;-52
2021/05/19 17:08:35;;;;;;;0.90;0.80;;;20.20;38.70;;;;;;8293981;28;20100;-48
2021/05/19 17:12:36;;;;;;;0.80;0.70;;;20.20;38.70;;;;;;8299392;28;20427;-48
2021/05/19 17:16:38;;;;;;;2.10;0.93;;;20.20;38.70;;;;;;8293194;28;20034;-48
2021/05/19 17:20:39;;;;;;;1.23;0.75;;;20.20;38.70;;;;;;8304112;28;20034;-49
2021/05/19 17:24:39;;;;;;;3.17;1.30;;;20.20;38.70;;;;;;8327213;28;20033;-49
2021/05/19 17:28:40;;;;;;;4.07;0.97;;;20.20;38.80;;;;;;8327771;28;20049;-50
2021/05/19 17:32:44;;;;;;;0.80;0.80;;;20.10;38.70;;;;;;8329545;28;20073;-49
2021/05/19 17:36:49;;;;;;;1.67;1.00;;;20.20;38.80;;;;;;8326981;28;20119;-48
2021/05/19 17:40:50;;;;;;;2.00;0.90;;;20.10;38.80;;;;;;8325030;28;20042;-49
2021/05/19 17:44:50;;;;;;;1.50;0.90;;;20.10;39.30;;;;;;8326809;28;20030;-49
2021/05/19 17:49:08;;;;;;;1.10;0.90;;;20.10;38.80;;;;;;8330836;28;20048;-50
2021/05/19 17:53:09;;;;;;;1.08;0.70;;;20.20;38.80;;;;;;8311222;28;20452;-50
2021/05/19 17:57:10;;;;;;;1.40;1.17;;;20.10;38.80;;;;;;8300757;28;20117;-51
2021/05/19 18:01:10;;;;;;;1.83;1.10;;;20.10;38.80;;;;;;8293634;28;20132;-52
2021/05/19 18:05:11;;;;;;;2.13;1.40;;;20.10;38.80;;;;;;8297383;28;20446;-51
2021/05/19 18:09:12;;;;;;;2.20;1.37;;;20.10;38.80;;;;;;8316534;28;20046;-50
2021/05/19 18:13:13;;;;;;;2.23;1.53;;;20.10;38.80;;;;;;8293341;28;20545;-49
2021/05/19 18:17:14;;;;;;;2.97;1.38;;;20.10;38.80;;;;;;8322120;28;20322;-48
2021/05/19 18:21:14;;;;;;;2.87;1.10;;;20.10;38.80;;;;;;8325724;28;20433;-50
2021/05/19 18:25:16;;;;;;;2.47;1.23;;;20.10;38.80;;;;;;8329963;28;20029;-48
2021/05/19 18:37:26;;;;;;;1.35;1.25;;;20.00;38.80;;;;;;8325314;28;20030;-48
2021/05/19 18:41:26;;;;;;;1.87;1.00;;;20.10;38.80;;;;;;8328014;28;20363;-49
2021/05/19 18:45:29;;;;;;;1.50;1.20;;;20.00;38.80;;;;;;8326450;28;20038;-48
2021/05/19 18:49:31;;;;;;;2.08;1.25;;;20.00;38.80;;;;;;8323079;28;20049;-48
2021/05/19 18:53:32;;;;;;;0.80;0.75;;;20.00;38.80;;;;;;8325037;28;20483;-48
2021/05/19 18:57:32;;;;;;;1.90;1.07;;;20.00;38.80;;;;;;8325089;28;20041;-48
2021/05/19 19:01:33;;;;;;;1.10;0.90;;;20.00;38.80;;;;;;8327294;28;20057;-47
2021/05/19 19:05:33;;;;;;;2.03;1.27;;;20.00;38.90;;;;;;8324905;28;20064;-49
2021/05/19 19:09:34;;;;;;;2.40;1.10;;;19.90;38.90;;;;;;8307610;28;20053;-48
2021/05/19 19:13:35;;;;;;;1.70;1.05;;;19.90;38.90;;;;;;8291340;28;20048;-48
2021/05/19 19:17:36;;;;;;;1.33;0.80;;;19.90;38.90;;;;;;8325601;28;20570;-50
2021/05/19 19:21:37;;;;;;;1.35;0.93;;;20.00;38.90;;;;;;8298640;28;20054;-49
2021/05/19 19:25:38;;;;;;;1.80;1.00;;;20.00;39.00;;;;;;8321214;28;20033;-49
2021/05/19 19:29:38;;;;;;;1.90;1.10;;;20.00;39.00;;;;;;8297724;28;20050;-49
2021/05/19 19:33:39;;;;;;;1.73;1.20;;;19.90;38.90;;;;;;8297910;28;20037;-49
2021/05/19 19:37:40;;;;;;;1.00;0.80;;;19.90;38.90;;;;;;8325248;28;20034;-49
2021/05/19 19:41:40;;;;;;;1.73;1.00;;;19.90;38.90;;;;;;8298097;28;20048;-49
2021/05/19 19:45:41;;;;;;;1.20;0.80;;;19.90;38.90;;;;;;8297910;28;20022;-49
2021/05/19 19:49:42;;;;;;;2.73;1.27;;;19.90;38.90;;;;;;8321975;28;20144;-49
2021/05/19 19:53:43;;;;;;;1.40;1.00;;;19.90;38.90;;;;;;8335063;28;20102;-49
2021/05/19 19:57:44;;;;;;;0.80;0.80;;;19.90;38.90;;;;;;8330450;28;20029;-49
2021/05/19 20:05:45;;;;;;;1.07;0.70;;;19.90;39.40;;;;;;8329848;28;20125;-49
2021/05/19 20:09:45;;;;;;;1.87;1.00;;;19.90;38.90;;;;;;8334179;28;20053;-49
2021/05/19 20:13:46;;;;;;;1.23;0.90;;;19.90;38.90;;;;;;8328094;28;20038;-52
2021/05/19 20:17:47;;;;;;;3.13;1.00;;;19.90;38.90;;;;;;8329643;28;20103;-51
2021/05/19 20:21:48;;;;;;;0.87;0.80;;;19.90;38.80;;;;;;8329241;28;20407;-49
2021/05/19 20:25:48;;;;;;;0.77;0.73;;;19.90;38.80;;;;;;8325069;28;20046;-49
2021/05/19 20:29:49;;;;;;;1.93;1.07;;;19.90;38.80;;;;;;8301240;28;20095;-51
2021/05/19 20:33:51;;;;;;;0.87;0.77;;;19.90;38.80;;;;;;8315616;28;20072;-49
2021/05/19 20:37:51;;;;;;;1.50;0.90;;;19.80;38.80;;;;;;8327883;28;20272;-48
2021/05/19 20:41:52;;;;;;;1.97;1.00;;;19.80;38.80;;;;;;8329127;28;20049;-49
2021/05/19 20:45:53;;;;;;;1.03;0.87;;;19.80;38.80;;;;;;8333348;28;20152;-49
2021/05/19 20:49:53;;;;;;;1.40;0.97;;;19.80;38.80;;;;;;8302232;28;20037;-48
2021/05/19 20:53:54;;;;;;;0.87;0.70;;;19.80;38.80;;;;;;8328352;28;20401;-49
2021/05/19 20:57:54;;;;;;;1.70;1.10;;;19.80;38.80;;;;;;8308447;28;20022;-48
2021/05/19 21:01:55;;;;;;;1.70;0.90;;;19.80;38.90;;;;;;8299363;28;20429;-50
2021/05/19 21:05:56;;;;;;;1.53;0.80;;;19.80;38.80;;;;;;8319660;28;20052;-49
2021/05/19 21:10:01;;;;;;;1.07;0.73;;;19.80;38.80;;;;;;8294938;28;20049;-48
2021/05/19 21:14:01;;;;;;;1.00;0.82;;;19.80;38.80;;;;;;8293438;28;20117;-48
2021/05/19 21:18:02;;;;;;;1.87;0.93;;;19.80;38.80;;;;;;8295024;28;20037;-49
2021/05/19 21:22:03;;;;;;;1.77;0.90;;;19.80;38.80;;;;;;8299061;28;20044;-47
2021/05/19 21:26:03;;;;;;;1.20;0.73;;;19.80;38.90;;;;;;8297564;28;20184;-49
2021/05/19 21:30:05;;;;;;;1.03;0.80;;;19.80;38.90;;;;;;8327501;28;20045;-49
2021/05/19 21:34:06;;;;;;;2.63;1.10;;;19.70;38.80;;;;;;8327135;28;20034;-48
2021/05/19 21:38:07;;;;;;;1.17;0.90;;;19.70;38.90;;;;;;8329403;28;20335;-48
2021/05/19 21:42:07;;;;;;;1.33;1.07;;;19.70;38.90;;;;;;8326682;28;20080;-48
2021/05/19 21:46:09;;;;;;;1.27;0.70;;;19.70;38.90;;;;;;8305204;28;20058;-48
2021/05/19 21:50:10;;;;;;;0.73;0.73;;;19.70;39.00;;;;;;8297693;28;20077;-48
2021/05/19 21:54:10;;;;;;;0.80;0.60;;;19.70;39.00;;;;;;8326788;28;20034;-49
2021/05/19 21:58:11;;;;;;;1.37;0.80;;;19.70;39.00;;;;;;8330934;28;20033;-48
2021/05/19 22:02:11;;;;;;;1.13;0.83;;;19.70;39.00;;;;;;8330493;28;20032;-49